createdAt,value
2024-01-18T00:03:53.327Z,0.10
2024-01-18T00:06:33.469Z,0.10
2024-01-18T00:09:09.802Z,0.10
2024-01-18T00:11:48.397Z,0.20
2024-01-18T00:14:26.762Z,0.00
2024-01-18T00:17:04.182Z,0.10
2024-01-18T00:19:41.536Z,0.15
2024-01-18T00:22:19.343Z,0.10
2024-01-18T00:24:55.736Z,0.03
2024-01-18T00:27:32.176Z,0.00
2024-01-18T00:30:11.776Z,0.10
2024-01-18T00:32:49.449Z,0.00
2024-01-18T00:35:25.729Z,0.13
2024-01-18T00:38:02.920Z,0.10
2024-01-18T00:40:39.551Z,0.00
2024-01-18T00:43:15.833Z,0.00
2024-01-18T00:45:51.907Z,0.08
2024-01-18T00:48:28.178Z,0.10
2024-01-18T00:51:09.635Z,0.00
2024-01-18T00:53:46.009Z,0.00
2024-01-18T00:56:22.150Z,0.10
2024-01-18T00:58:58.163Z,0.00
2024-01-18T01:01:34.467Z,0.05
2024-01-18T01:04:11.036Z,0.10
2024-01-18T01:06:47.114Z,0.00
2024-01-18T01:09:23.151Z,0.00
2024-01-18T01:14:34.990Z,0.00
2024-01-18T01:17:10.906Z,0.00
2024-01-18T01:22:23.108Z,0.00
2024-01-18T01:27:34.888Z,0.00
2024-01-18T01:32:47.906Z,0.00
2024-01-18T01:37:59.665Z,0.10
2024-01-18T01:40:35.611Z,0.00
2024-01-18T01:43:11.518Z,0.00
2024-01-18T01:48:23.876Z,0.00
2024-01-18T01:51:00.006Z,0.10
2024-01-18T01:53:39.039Z,0.00
2024-01-18T01:58:52.408Z,0.03
2024-01-18T02:01:28.777Z,0.00
2024-01-18T02:04:04.875Z,0.00
2024-01-18T02:06:40.994Z,0.10
2024-01-18T02:11:52.826Z,0.10
2024-01-18T02:17:05.430Z,0.20
2024-01-18T02:19:41.513Z,0.00
2024-01-18T02:22:20.150Z,0.00
2024-01-18T02:25:05.220Z,0.10
2024-01-18T02:27:41.226Z,0.10
2024-01-18T02:32:53.572Z,0.30
2024-01-18T02:35:29.829Z,0.00
2024-01-18T02:38:09.213Z,0.10
2024-01-18T02:40:45.383Z,0.00
2024-01-18T02:43:21.383Z,0.10
2024-01-18T02:48:33.400Z,0.00
2024-01-18T02:51:09.388Z,0.00
2024-01-18T02:56:21.349Z,0.03
2024-01-18T02:58:57.315Z,0.10
2024-01-18T03:04:09.514Z,0.10
2024-01-18T03:06:45.815Z,0.00
2024-01-18T03:09:21.878Z,0.10
2024-01-18T03:14:37.762Z,0.05
2024-01-18T03:17:14.169Z,0.00
2024-01-18T03:22:26.135Z,0.00
2024-01-18T03:25:03.090Z,0.00
2024-01-18T03:27:39.420Z,0.00
2024-01-18T03:30:15.776Z,0.00
2024-01-18T03:32:51.789Z,0.00
2024-01-18T03:38:03.906Z,0.00
2024-01-18T03:40:41.103Z,0.10
2024-01-18T03:43:17.153Z,0.03
2024-01-18T03:48:28.998Z,0.10
2024-01-18T03:51:05.088Z,0.00
2024-01-18T03:53:45.375Z,0.00
2024-01-18T03:56:21.357Z,0.00
2024-01-18T04:01:36.211Z,0.10
2024-01-18T04:04:15.311Z,0.00
2024-01-18T04:06:51.379Z,0.00
2024-01-18T04:12:03.732Z,0.00
2024-01-18T04:14:42.090Z,0.10
2024-01-18T04:17:18.061Z,0.00
2024-01-18T04:22:30.095Z,0.00
2024-01-18T04:25:06.481Z,0.20
2024-01-18T04:27:42.544Z,0.00
2024-01-18T04:30:18.606Z,0.08
2024-01-18T04:32:54.617Z,0.00
2024-01-18T04:38:07.649Z,0.10
2024-01-18T04:40:45.132Z,0.10
2024-01-18T04:43:21.191Z,0.03
2024-01-18T04:45:57.162Z,0.10
2024-01-18T04:51:09.332Z,0.05
2024-01-18T04:53:45.372Z,0.05
2024-01-18T04:58:57.518Z,0.00
2024-01-18T05:01:38.738Z,0.10
2024-01-18T05:04:14.925Z,0.00
2024-01-18T05:06:51.029Z,0.00
2024-01-18T05:09:27.447Z,0.00
2024-01-18T05:12:03.543Z,0.00
2024-01-18T05:14:39.561Z,0.00
2024-01-18T05:17:17.459Z,0.10
2024-01-18T05:19:53.599Z,0.00
2024-01-18T05:22:29.552Z,0.03
2024-01-18T05:25:07.405Z,0.00
2024-01-18T05:27:44.194Z,0.00
2024-01-18T05:30:22.314Z,0.05
2024-01-18T05:32:58.546Z,0.00
2024-01-18T05:35:34.639Z,0.00
2024-01-18T05:38:10.575Z,0.10
2024-01-18T05:40:46.908Z,0.00
2024-01-18T05:43:22.868Z,0.05
2024-01-18T05:48:34.758Z,0.10
2024-01-18T05:51:10.715Z,0.00
2024-01-18T05:56:22.534Z,0.08
2024-01-18T05:58:58.407Z,0.20
2024-01-18T06:01:34.426Z,0.10
2024-01-18T06:06:47.052Z,0.10
2024-01-18T06:09:23.063Z,0.30
2024-01-18T06:12:00.136Z,0.10
2024-01-18T06:14:38.700Z,0.20
2024-01-18T06:19:50.675Z,0.20
2024-01-18T06:25:04.819Z,0.10
2024-01-18T06:27:41.039Z,0.15
2024-01-18T06:30:19.592Z,0.10
2024-01-18T06:32:55.715Z,0.10
2024-01-18T06:38:07.907Z,0.10
2024-01-18T06:43:20.769Z,0.10
2024-01-18T06:45:57.387Z,0.20
2024-01-18T06:48:33.337Z,0.13
2024-01-18T06:53:45.536Z,0.20
2024-01-18T06:56:21.725Z,0.20
2024-01-18T07:01:34.776Z,0.30
2024-01-18T07:04:11.011Z,0.20
2024-01-18T07:06:47.217Z,0.20
2024-01-18T07:09:23.212Z,0.30
2024-01-18T07:14:35.269Z,0.20
2024-01-18T07:19:48.087Z,0.20
2024-01-18T07:22:24.141Z,0.20
2024-01-18T07:27:37.260Z,0.30
2024-01-18T07:30:15.611Z,0.10
2024-01-18T07:32:52.000Z,0.10
2024-01-18T07:35:27.962Z,0.10
2024-01-18T07:38:03.980Z,0.10
2024-01-18T07:43:16.075Z,0.17
2024-01-18T07:45:52.213Z,0.10
2024-01-18T07:48:28.993Z,0.00
2024-01-18T07:51:07.699Z,0.03
2024-01-18T07:53:43.850Z,0.00
2024-01-18T07:56:19.876Z,0.10
2024-01-18T07:58:55.973Z,0.20
2024-01-18T08:01:36.394Z,0.10
2024-01-18T08:04:14.372Z,0.00
2024-01-18T08:06:50.422Z,0.00
2024-01-18T08:09:26.428Z,0.10
2024-01-18T08:14:48.785Z,0.10
2024-01-18T08:17:26.070Z,0.20
2024-01-18T08:20:05.300Z,0.00
2024-01-18T08:22:41.326Z,0.00
2024-01-18T08:25:17.649Z,0.00
2024-01-18T08:27:58.179Z,0.10
2024-01-18T08:30:34.368Z,0.00
2024-01-18T08:33:11.159Z,0.00
2024-01-18T08:35:47.270Z,0.00
2024-01-18T08:38:23.674Z,0.00
2024-01-18T08:41:03.682Z,0.10
2024-01-18T08:43:39.626Z,0.10
2024-01-18T08:46:19.311Z,0.00
2024-01-18T08:48:55.621Z,0.05
2024-01-18T08:51:37.451Z,0.00
2024-01-18T08:54:13.722Z,0.00
2024-01-18T08:56:49.836Z,0.20
2024-01-18T08:59:27.276Z,0.10
2024-01-18T09:02:10.346Z,0.00
2024-01-18T09:04:53.982Z,0.03
2024-01-18T09:07:30.136Z,0.00
2024-01-18T09:10:08.112Z,0.00
2024-01-18T09:12:47.505Z,0.05
2024-01-18T09:15:23.599Z,0.10
2024-01-18T09:18:00.645Z,0.00
2024-01-18T09:20:41.548Z,0.00
2024-01-18T09:23:17.818Z,0.00
2024-01-18T09:25:53.823Z,0.10
2024-01-18T09:28:29.900Z,0.00
2024-01-18T09:31:06.097Z,0.17
2024-01-18T09:33:44.439Z,0.10
2024-01-18T09:36:20.557Z,0.30
2024-01-18T09:38:56.573Z,0.10
2024-01-18T09:41:32.580Z,0.00
2024-01-18T09:44:09.210Z,0.00
2024-01-18T09:46:45.678Z,0.03
2024-01-18T09:49:21.670Z,0.10
2024-01-18T09:51:59.579Z,0.00
2024-01-18T09:54:38.376Z,0.00
2024-01-18T09:57:17.920Z,0.10
2024-01-18T09:59:54.668Z,0.20
2024-01-18T10:02:33.792Z,0.15
2024-01-18T10:05:10.018Z,0.10
2024-01-18T10:07:46.050Z,0.10
2024-01-18T10:10:22.118Z,0.10
2024-01-18T10:12:58.127Z,0.00
2024-01-18T10:15:37.981Z,0.00
2024-01-18T10:18:14.186Z,0.00
2024-01-18T10:20:51.966Z,0.03
2024-01-18T10:23:28.001Z,0.08
2024-01-18T10:26:04.328Z,0.10
2024-01-18T10:28:40.958Z,0.10
2024-01-18T10:31:18.552Z,0.00
2024-01-18T10:33:54.577Z,0.10
2024-01-18T10:36:31.514Z,0.10
2024-01-18T10:39:20.371Z,0.10
2024-01-18T10:44:32.391Z,0.00
2024-01-18T10:47:12.968Z,0.10
2024-01-18T10:49:50.303Z,0.10
2024-01-18T10:52:26.672Z,0.00
2024-01-18T10:55:08.909Z,0.20
2024-01-18T10:57:47.460Z,0.00
2024-01-18T11:00:23.818Z,0.00
2024-01-18T11:03:01.193Z,0.05
2024-01-18T11:05:38.924Z,0.10
2024-01-18T11:08:16.400Z,0.00
2024-01-18T11:10:52.614Z,0.03
2024-01-18T11:13:30.363Z,0.03
2024-01-18T11:16:07.946Z,0.10
2024-01-18T11:18:45.621Z,0.00
2024-01-18T11:21:28.897Z,0.10
2024-01-18T11:24:13.031Z,0.00
2024-01-18T11:26:49.131Z,0.10
2024-01-18T11:29:27.338Z,0.00
2024-01-18T11:32:04.351Z,0.05
2024-01-18T11:34:41.486Z,0.10
2024-01-18T11:37:21.762Z,0.10
2024-01-18T11:39:55.773Z,0.10
2024-01-18T11:42:33.425Z,0.08
2024-01-18T11:45:18.058Z,0.00
2024-01-18T11:47:54.254Z,0.10
2024-01-18T11:50:31.795Z,0.10
2024-01-18T11:53:08.890Z,0.03
2024-01-18T11:55:52.955Z,0.10
2024-01-18T11:58:29.458Z,0.17
2024-01-18T12:01:08.322Z,0.10
2024-01-18T12:03:44.747Z,0.10
2024-01-18T12:06:21.661Z,0.10
2024-01-18T12:09:00.436Z,0.10
2024-01-18T12:11:39.013Z,0.13
2024-01-18T12:14:15.323Z,0.10
2024-01-18T12:16:51.438Z,0.10
2024-01-18T12:19:38.686Z,0.10
2024-01-18T12:22:23.929Z,0.10
2024-01-18T12:25:02.408Z,0.20
2024-01-18T12:27:40.844Z,0.05
2024-01-18T12:30:17.419Z,0.20
2024-01-18T12:32:54.578Z,0.10
2024-01-18T12:35:30.591Z,0.10
2024-01-18T12:38:08.460Z,0.05
2024-01-18T12:40:44.960Z,0.20
2024-01-18T12:43:23.266Z,0.10
2024-01-18T12:45:59.580Z,0.08
2024-01-18T12:48:35.772Z,0.15
2024-01-18T12:51:11.921Z,0.20
2024-01-18T12:53:48.060Z,0.10
2024-01-18T12:56:24.332Z,0.05
2024-01-18T12:59:00.335Z,0.05
2024-01-18T13:01:38.356Z,0.10
2024-01-18T13:04:26.338Z,0.03
2024-01-18T13:07:04.727Z,0.10
2024-01-18T13:09:41.372Z,0.10
2024-01-18T13:12:18.147Z,0.20
2024-01-18T13:14:54.469Z,0.10
2024-01-18T13:17:30.654Z,0.20
2024-01-18T13:20:15.776Z,0.10
2024-01-18T13:22:51.784Z,0.30
2024-01-18T13:25:27.933Z,0.10
2024-01-18T13:28:03.968Z,0.28
2024-01-18T13:30:40.224Z,0.20
2024-01-18T13:33:16.433Z,0.20
2024-01-18T13:35:53.593Z,0.20
2024-01-18T13:38:29.626Z,0.15
2024-01-18T13:41:07.892Z,0.13
2024-01-18T13:43:45.672Z,0.20
2024-01-18T13:46:22.889Z,0.10
2024-01-18T13:48:59.429Z,0.40
2024-01-18T13:51:35.511Z,0.17
2024-01-18T13:54:11.651Z,0.30
2024-01-18T13:56:47.881Z,0.15
2024-01-18T13:59:23.859Z,0.10
2024-01-18T14:01:59.965Z,0.17
2024-01-18T14:04:37.000Z,0.22
2024-01-18T14:07:13.201Z,0.20
2024-01-18T14:09:49.319Z,0.13
2024-01-18T14:12:25.510Z,0.10
2024-01-18T14:15:04.165Z,0.20
2024-01-18T14:17:40.167Z,0.20
2024-01-18T14:20:16.394Z,0.20
2024-01-18T14:22:52.382Z,0.20
2024-01-18T14:25:28.445Z,0.20
2024-01-18T14:30:43.050Z,0.20
2024-01-18T14:33:20.312Z,0.20
2024-01-18T14:35:56.370Z,0.20
2024-01-18T14:38:32.378Z,0.20
2024-01-18T14:43:44.473Z,0.45
2024-01-18T14:48:59.079Z,0.22
2024-01-18T14:51:38.603Z,0.22
2024-01-18T14:54:15.124Z,0.22
2024-01-18T14:56:55.572Z,0.20
2024-01-18T14:59:33.744Z,0.20
2024-01-18T15:02:14.100Z,0.20
2024-01-18T15:05:06.513Z,0.10
2024-01-18T15:07:45.601Z,0.22
2024-01-18T15:10:25.311Z,0.25
2024-01-18T15:13:11.710Z,0.30
2024-01-18T15:15:50.805Z,0.10
2024-01-18T15:18:27.179Z,0.17
2024-01-18T15:21:05.104Z,0.20
2024-01-18T15:23:41.160Z,0.10
2024-01-18T15:26:20.749Z,0.90
2024-01-18T15:28:56.747Z,0.38
2024-01-18T15:31:33.561Z,0.30
2024-01-18T15:34:09.793Z,0.30
2024-01-18T15:36:45.953Z,0.50
2024-01-18T15:39:22.093Z,0.40
2024-01-18T15:41:58.052Z,0.38
2024-01-18T15:44:34.020Z,0.30
2024-01-18T15:47:15.211Z,0.40
2024-01-18T15:49:51.743Z,0.40
2024-01-18T15:52:27.834Z,0.50
2024-01-18T15:55:04.281Z,0.40
2024-01-18T15:57:40.314Z,0.20
2024-01-18T16:00:16.926Z,0.30
2024-01-18T16:02:53.118Z,0.47
2024-01-18T16:05:29.036Z,0.60
2024-01-18T16:08:05.948Z,0.50
2024-01-18T16:10:41.942Z,0.80
2024-01-18T16:13:17.859Z,1.00
2024-01-18T16:15:54.037Z,1.05
2024-01-18T16:18:30.199Z,0.80
2024-01-18T16:21:07.077Z,0.52
2024-01-18T16:23:42.996Z,0.65
2024-01-18T16:26:19.266Z,0.63
2024-01-18T16:28:55.222Z,0.60
2024-01-18T16:31:31.289Z,0.90
2024-01-18T16:34:08.572Z,1.00
2024-01-18T16:36:44.668Z,1.20
2024-01-18T16:39:20.704Z,1.00
2024-01-18T16:41:56.727Z,0.73
2024-01-18T16:44:33.147Z,0.75
2024-01-18T16:47:09.264Z,1.10
2024-01-18T16:49:45.314Z,1.60
2024-01-18T16:52:22.943Z,1.08
2024-01-18T16:55:00.365Z,1.38
2024-01-18T16:57:42.207Z,1.40
2024-01-18T17:00:18.872Z,1.83
2024-01-18T17:02:55.038Z,1.70
2024-01-18T17:05:31.211Z,1.38
2024-01-18T17:08:08.422Z,1.63
2024-01-18T17:10:44.561Z,1.88
2024-01-18T17:13:20.792Z,1.75
2024-01-18T17:15:56.993Z,1.83
2024-01-18T17:18:33.062Z,2.17
2024-01-18T17:21:09.710Z,2.17
2024-01-18T17:23:45.888Z,2.05
2024-01-18T17:26:22.112Z,1.80
2024-01-18T17:28:58.218Z,2.25
2024-01-18T17:31:34.196Z,2.50
2024-01-18T17:34:12.980Z,2.67
2024-01-18T17:36:49.128Z,2.33
2024-01-18T17:39:25.174Z,2.72
2024-01-18T17:42:03.977Z,2.97
2024-01-18T17:44:40.032Z,2.80
2024-01-18T17:47:16.391Z,2.97
2024-01-18T17:57:44.486Z,2.67
2024-01-18T18:00:29.518Z,2.10
2024-01-18T18:03:09.262Z,2.63
2024-01-18T18:05:46.224Z,2.28
2024-01-18T18:08:22.444Z,2.25
2024-01-18T18:10:59.888Z,1.88
2024-01-18T18:13:36.269Z,2.40
2024-01-18T18:18:50.080Z,2.33
2024-01-18T18:21:28.552Z,2.53
2024-01-18T18:24:05.115Z,2.53
2024-01-18T18:26:41.356Z,2.60
2024-01-18T18:29:17.575Z,1.98
2024-01-18T18:31:55.127Z,2.00
2024-01-18T18:34:31.266Z,2.40
2024-01-18T18:37:10.390Z,2.53
2024-01-18T18:39:52.605Z,1.73
2024-01-18T18:42:29.079Z,1.90
2024-01-18T18:45:14.074Z,1.90
2024-01-18T18:47:56.899Z,1.88
2024-01-18T18:50:35.799Z,2.60
2024-01-18T18:53:13.252Z,2.80
2024-01-18T18:55:55.688Z,2.53
2024-01-18T18:58:32.134Z,2.22
2024-01-18T19:03:44.507Z,3.05
2024-01-18T19:06:20.588Z,3.58
2024-01-18T19:09:10.430Z,3.90
2024-01-18T19:11:49.307Z,4.63
2024-01-18T19:14:25.575Z,4.03
2024-01-18T19:17:04.641Z,4.25
2024-01-18T19:19:41.429Z,3.95
2024-01-18T19:22:17.480Z,2.83
2024-01-18T19:24:55.165Z,3.45
2024-01-18T19:27:31.177Z,4.47
2024-01-18T19:30:08.993Z,4.78
2024-01-18T19:32:45.025Z,2.35
2024-01-18T19:35:21.331Z,2.67
2024-01-18T19:37:59.976Z,2.85
2024-01-18T19:40:36.388Z,2.90
2024-01-18T19:43:12.558Z,2.47
2024-01-18T19:45:48.712Z,2.38
2024-01-18T19:48:24.780Z,2.35
2024-01-18T19:51:01.059Z,2.25
2024-01-18T19:53:38.300Z,2.50
2024-01-18T19:56:14.482Z,2.65
2024-01-18T19:58:51.434Z,2.67
2024-01-18T20:01:27.671Z,2.50
2024-01-18T20:04:04.290Z,2.50
2024-01-18T20:06:40.339Z,3.00
2024-01-18T20:09:16.474Z,2.58
2024-01-18T20:11:53.810Z,2.90
2024-01-18T20:14:30.308Z,2.97
2024-01-18T20:19:42.585Z,2.35
2024-01-18T20:22:18.829Z,3.53
2024-01-18T20:24:55.499Z,3.47
2024-01-18T20:27:34.635Z,3.38
2024-01-18T20:30:11.421Z,3.67
2024-01-18T20:32:47.628Z,3.97
2024-01-18T20:35:23.818Z,3.47
2024-01-18T20:37:59.977Z,4.90
2024-01-18T20:40:37.747Z,4.05
2024-01-18T20:43:13.856Z,4.40
2024-01-18T20:45:49.844Z,4.32
2024-01-18T20:48:25.962Z,4.32
2024-01-18T20:51:02.924Z,4.50
2024-01-18T20:53:40.933Z,5.78
2024-01-18T20:56:17.245Z,5.93
2024-01-18T20:58:53.933Z,5.47
2024-01-18T21:01:29.929Z,5.25
2024-01-18T21:04:09.792Z,4.90
2024-01-18T21:06:46.043Z,4.63
2024-01-18T21:09:24.930Z,5.50
2024-01-18T21:12:01.003Z,5.25
2024-01-18T21:14:37.871Z,5.70
2024-01-18T21:17:13.858Z,5.95
2024-01-18T21:19:50.268Z,5.97
2024-01-18T21:22:26.319Z,5.10
2024-01-18T21:25:02.442Z,6.10
2024-01-18T21:27:38.346Z,5.25
2024-01-18T21:30:14.379Z,5.22
2024-01-18T21:32:50.390Z,4.78
2024-01-18T21:35:26.497Z,6.22
2024-01-18T21:38:02.545Z,5.22
2024-01-18T21:40:38.482Z,5.18
2024-01-18T21:43:14.554Z,5.55
2024-01-18T21:45:50.799Z,6.45
2024-01-18T21:48:27.783Z,6.07
2024-01-18T21:51:04.038Z,6.32
2024-01-18T21:53:40.626Z,5.78
2024-01-18T21:56:18.581Z,5.45
2024-01-18T21:58:55.428Z,6.00
2024-01-18T22:01:31.534Z,6.03
2024-01-18T22:04:08.581Z,5.63
2024-01-18T22:06:44.547Z,6.35
2024-01-18T22:09:30.666Z,5.65
2024-01-18T22:15:02.040Z,5.55
2024-01-18T22:17:38.970Z,5.50
2024-01-18T22:20:15.488Z,6.20
2024-01-18T22:25:30.143Z,6.10
2024-01-18T22:28:07.465Z,5.45
2024-01-18T22:30:43.869Z,5.50
2024-01-18T22:35:58.575Z,5.85
2024-01-18T22:38:35.843Z,5.45
2024-01-18T22:41:12.359Z,6.20
2024-01-18T22:43:51.779Z,6.05
2024-01-18T22:46:31.324Z,5.05
2024-01-18T22:49:07.767Z,5.13
2024-01-18T22:51:44.270Z,4.65
2024-01-18T22:54:20.199Z,5.07
2024-01-18T22:56:56.672Z,5.10
2024-01-18T23:02:15.653Z,4.30
2024-01-18T23:04:51.672Z,5.18
2024-01-18T23:07:27.777Z,4.60
2024-01-18T23:10:10.943Z,4.82
2024-01-18T23:12:47.005Z,4.95
2024-01-18T23:15:23.083Z,4.90
2024-01-18T23:18:03.959Z,5.00
2024-01-18T23:20:44.212Z,3.58
2024-01-18T23:23:20.929Z,4.72
2024-01-18T23:25:59.290Z,4.13
2024-01-18T23:28:36.055Z,4.05
2024-01-18T23:31:12.134Z,3.70
2024-01-18T23:33:49.005Z,3.88
2024-01-18T23:36:25.066Z,4.72
2024-01-18T23:39:01.030Z,4.03
2024-01-18T23:41:38.655Z,5.28
2024-01-18T23:44:14.778Z,4.43
2024-01-18T23:46:50.798Z,3.90
2024-01-18T23:49:26.886Z,4.63
2024-01-18T23:52:03.729Z,3.78
2024-01-18T23:54:39.680Z,3.88
2024-01-18T23:57:15.649Z,4.20
2024-01-18T23:59:52.361Z,4.28
